Time;durP1;ratioP1;P1;durP2;ratioP2;P2;SDS_P1;SDS_P2;PMS_P1;PMS_P2;Temp;Humidity;BMP_temperature;BMP_pressure;BME280_temperature;BME280_humidity;BME280_pressure;Samples;Min_cycle;Max_cycle;Signal;HPM_P1;HPM_P2
2023/12/29 00:01:30;;;;;;;;;;;5.40;99.90;;;;;;5050723;28;19976;-62
2023/12/29 00:03:57;;;;;;;;;;;5.40;99.90;;;;;;5058574;28;20032;-60
2023/12/29 00:06:24;;;;;;;;;;;5.30;99.90;;;;;;5056059;28;19936;-63
2023/12/29 00:08:51;;;;;;;;;;;5.30;99.90;;;;;;5059797;28;19964;-60
2023/12/29 00:11:19;;;;;;;;;;;5.20;99.90;;;;;;5053207;28;20349;-59
2023/12/29 00:13:46;;;;;;;;;;;5.20;99.90;;;;;;5055967;28;19931;-59
2023/12/29 00:16:14;;;;;;;;;;;5.20;99.90;;;;;;5057486;28;19940;-62
2023/12/29 00:18:41;;;;;;;;;;;5.10;99.90;;;;;;5049772;28;19940;-59
2023/12/29 00:21:08;;;;;;;;;;;5.10;99.90;;;;;;5050683;28;19937;-58
2023/12/29 00:23:35;;;;;;;;;;;5.00;99.90;;;;;;5050335;28;19940;-62
2023/12/29 00:26:02;;;;;;;;;;;5.00;99.90;;;;;;5052768;28;19932;-59
2023/12/29 00:28:29;;;;;;;;;;;5.00;99.90;;;;;;5058649;28;19963;-62
2023/12/29 00:30:56;;;;;;;;;;;4.90;99.90;;;;;;5055034;28;20563;-64
2023/12/29 00:33:31;;;;;;;;;;;4.90;99.90;;;;;;5053616;28;20568;-59
2023/12/29 00:35:58;;;;;;;;;;;4.90;99.90;;;;;;5049470;28;19925;-59
2023/12/29 00:38:29;;;;;;;;;;;4.80;99.90;;;;;;5055166;28;20023;-64
2023/12/29 00:40:55;;;;;;;;;;;4.80;99.90;;;;;;5057940;28;19928;-61
2023/12/29 00:43:22;;;;;;;;;;;4.80;99.90;;;;;;5052618;28;20031;-61
2023/12/29 00:45:50;;;;;;;;;;;4.80;99.90;;;;;;5049764;28;19928;-59
2023/12/29 00:48:17;;;;;;;;;;;4.80;99.90;;;;;;5050282;28;20369;-60
2023/12/29 00:50:45;;;;;;;;;;;4.80;99.90;;;;;;5056495;28;19959;-64
2023/12/29 00:53:12;;;;;;;;;;;4.70;99.90;;;;;;5060993;28;19932;-61
2023/12/29 00:55:39;;;;;;;;;;;4.70;99.90;;;;;;5051962;28;20447;-60
2023/12/29 00:58:05;;;;;;;;;;;4.80;99.90;;;;;;5052818;28;19932;-61
2023/12/29 01:00:32;;;;;;;;;;;4.80;99.90;;;;;;5058643;28;20361;-60
2023/12/29 01:03:00;;;;;;;;;;;4.80;99.90;;;;;;5054721;28;19929;-61
2023/12/29 01:05:27;;;;;;;;;;;4.80;99.90;;;;;;5053640;28;20397;-63
2023/12/29 01:07:54;;;;;;;;;;;4.80;99.90;;;;;;5082456;28;19932;-61
2023/12/29 01:10:21;;;;;;;;;;;4.90;99.90;;;;;;5050473;28;19925;-61
2023/12/29 01:12:48;;;;;;;;;;;4.90;99.90;;;;;;5053976;28;19931;-59
2023/12/29 01:15:15;;;;;;;;;;;5.00;99.90;;;;;;5061923;28;19928;-60
2023/12/29 01:17:42;;;;;;;;;;;4.90;99.90;;;;;;5060900;28;19925;-60
2023/12/29 01:20:09;;;;;;;;;;;5.00;99.90;;;;;;5055854;28;19929;-60
2023/12/29 01:22:36;;;;;;;;;;;5.00;99.90;;;;;;5051269;28;19936;-64
2023/12/29 01:25:03;;;;;;;;;;;5.00;99.90;;;;;;5055172;28;19936;-65
2023/12/29 01:27:30;;;;;;;;;;;5.00;99.90;;;;;;5050062;28;19931;-61
2023/12/29 01:29:57;;;;;;;;;;;5.10;99.90;;;;;;5049590;28;19939;-60
2023/12/29 01:32:23;;;;;;;;;;;5.10;99.90;;;;;;5049533;28;19929;-62
2023/12/29 01:34:51;;;;;;;;;;;5.10;99.90;;;;;;5084067;28;20306;-61
2023/12/29 01:37:18;;;;;;;;;;;5.10;99.90;;;;;;5056115;28;19928;-58
2023/12/29 01:39:45;;;;;;;;;;;5.20;99.90;;;;;;5054389;28;19928;-60
2023/12/29 01:42:12;;;;;;;;;;;5.20;99.90;;;;;;5056703;28;19928;-59
2023/12/29 01:44:39;;;;;;;;;;;5.20;99.90;;;;;;5059504;28;20019;-62
2023/12/29 01:47:18;;;;;;;;;;;5.20;99.90;;;;;;5057760;28;19925;-58
2023/12/29 01:49:45;;;;;;;;;;;5.20;99.90;;;;;;5067103;28;19928;-66
2023/12/29 01:52:14;;;;;;;;;;;5.30;99.90;;;;;;5051469;28;20354;-61
2023/12/29 01:54:42;;;;;;;;;;;5.30;99.90;;;;;;5048534;28;19934;-60
2023/12/29 01:57:10;;;;;;;;;;;5.30;99.90;;;;;;5048535;28;19932;-65
2023/12/29 01:59:38;;;;;;;;;;;5.30;99.90;;;;;;5080993;28;19955;-62
2023/12/29 02:02:05;;;;;;;;;;;5.30;99.90;;;;;;5091138;28;19929;-60
2023/12/29 02:04:32;;;;;;;;;;;5.30;99.90;;;;;;5089388;28;20002;-59
2023/12/29 02:06:59;;;;;;;;;;;5.40;99.90;;;;;;5051907;28;20027;-59
2023/12/29 02:09:27;;;;;;;;;;;5.40;99.90;;;;;;5056363;28;19929;-64
2023/12/29 02:11:54;;;;;;;;;;;5.40;99.90;;;;;;5050792;28;19929;-66
2023/12/29 02:14:21;;;;;;;;;;;5.50;99.90;;;;;;5053869;28;20691;-65
2023/12/29 02:17:00;;;;;;;;;;;5.50;99.90;;;;;;5052576;28;19935;-60
2023/12/29 02:19:37;;;;;;;;;;;5.50;99.90;;;;;;5048071;28;20444;-62
2023/12/29 02:22:05;;;;;;;;;;;5.60;99.90;;;;;;5048567;28;19939;-62
2023/12/29 02:24:33;;;;;;;;;;;5.60;99.90;;;;;;5057267;28;20019;-59
2023/12/29 02:27:06;;;;;;;;;;;5.60;99.90;;;;;;5055201;28;19925;-60
2023/12/29 02:29:33;;;;;;;;;;;5.60;99.90;;;;;;5047590;28;19929;-62
2023/12/29 02:32:04;;;;;;;;;;;5.60;99.90;;;;;;5047827;28;20403;-60
2023/12/29 02:34:31;;;;;;;;;;;5.70;99.90;;;;;;5053978;28;20358;-61
2023/12/29 02:36:58;;;;;;;;;;;5.70;99.90;;;;;;5051103;28;19952;-62
2023/12/29 02:39:25;;;;;;;;;;;5.70;99.90;;;;;;5051504;28;19931;-64
2023/12/29 02:41:52;;;;;;;;;;;5.70;99.90;;;;;;5046582;28;19935;-62
2023/12/29 02:44:19;;;;;;;;;;;5.80;99.90;;;;;;5054559;28;19925;-60
2023/12/29 02:46:46;;;;;;;;;;;5.80;99.90;;;;;;5046825;28;19968;-61
2023/12/29 02:49:13;;;;;;;;;;;5.80;99.90;;;;;;5060916;28;19929;-59
2023/12/29 02:51:40;;;;;;;;;;;5.80;99.90;;;;;;5052137;28;19929;-62
2023/12/29 02:54:07;;;;;;;;;;;5.80;99.90;;;;;;5054985;28;20497;-59
2023/12/29 02:56:35;;;;;;;;;;;5.80;99.90;;;;;;5046576;28;19968;-60
2023/12/29 02:59:02;;;;;;;;;;;5.80;99.90;;;;;;5042075;28;20282;-61
2023/12/29 03:01:29;;;;;;;;;;;5.90;99.90;;;;;;5049531;28;19937;-61
2023/12/29 03:03:56;;;;;;;;;;;5.80;99.90;;;;;;5054955;28;19936;-61
2023/12/29 03:06:24;;;;;;;;;;;5.80;99.90;;;;;;5048369;28;20007;-58
2023/12/29 03:08:51;;;;;;;;;;;5.80;99.90;;;;;;5053353;28;19944;-60
2023/12/29 03:11:18;;;;;;;;;;;5.90;99.90;;;;;;5058064;28;19954;-60
2023/12/29 03:13:45;;;;;;;;;;;5.80;99.90;;;;;;5056441;28;19933;-62
2023/12/29 03:16:12;;;;;;;;;;;5.80;99.90;;;;;;5055877;28;20472;-59
2023/12/29 03:18:40;;;;;;;;;;;5.80;99.90;;;;;;5058665;28;19951;-60
2023/12/29 03:21:08;;;;;;;;;;;5.90;99.90;;;;;;5069139;28;20291;-62
2023/12/29 03:23:35;;;;;;;;;;;5.90;99.90;;;;;;5059798;28;20011;-60
2023/12/29 03:26:02;;;;;;;;;;;5.90;99.90;;;;;;5055556;28;19925;-65
2023/12/29 03:28:29;;;;;;;;;;;6.00;99.90;;;;;;5055367;28;19925;-58
2023/12/29 03:30:56;;;;;;;;;;;6.00;99.90;;;;;;5047312;28;20349;-59
2023/12/29 03:33:23;;;;;;;;;;;6.00;99.90;;;;;;5051662;28;19936;-62
2023/12/29 03:35:50;;;;;;;;;;;6.00;99.90;;;;;;5058632;28;20584;-60
2023/12/29 03:38:17;;;;;;;;;;;6.00;99.90;;;;;;5061562;28;20047;-59
2023/12/29 03:40:44;;;;;;;;;;;6.00;99.90;;;;;;5062129;28;20006;-59
2023/12/29 03:43:11;;;;;;;;;;;6.00;99.90;;;;;;5053451;28;20302;-65
2023/12/29 03:45:38;;;;;;;;;;;6.00;99.90;;;;;;5056185;28;19936;-64
2023/12/29 03:48:06;;;;;;;;;;;6.00;99.90;;;;;;5056598;28;19925;-59
2023/12/29 03:50:33;;;;;;;;;;;5.90;99.90;;;;;;5051472;28;19925;-62
2023/12/29 03:52:59;;;;;;;;;;;5.90;99.90;;;;;;5053052;28;19952;-60
2023/12/29 03:55:26;;;;;;;;;;;5.90;99.90;;;;;;5051086;28;20019;-65
2023/12/29 03:57:54;;;;;;;;;;;5.90;99.90;;;;;;5050492;28;19925;-59
2023/12/29 04:00:21;;;;;;;;;;;5.90;99.90;;;;;;5061993;28;20026;-60
2023/12/29 04:02:49;;;;;;;;;;;5.90;99.90;;;;;;5053984;28;20701;-58
2023/12/29 04:05:16;;;;;;;;;;;5.90;99.90;;;;;;5055584;28;19978;-58
2023/12/29 04:07:43;;;;;;;;;;;5.90;99.90;;;;;;5055182;28;20015;-62
2023/12/29 04:10:10;;;;;;;;;;;5.90;99.90;;;;;;5054714;28;19928;-61
2023/12/29 04:12:37;;;;;;;;;;;5.90;99.90;;;;;;5053864;28;19928;-60
2023/12/29 04:15:04;;;;;;;;;;;5.90;99.90;;;;;;5052607;28;19925;-61
2023/12/29 04:17:31;;;;;;;;;;;5.90;99.90;;;;;;5047503;28;19929;-61
2023/12/29 04:19:59;;;;;;;;;;;5.90;99.90;;;;;;5049435;28;19940;-61
2023/12/29 04:22:26;;;;;;;;;;;5.90;99.90;;;;;;5062782;28;19971;-61
2023/12/29 04:24:53;;;;;;;;;;;5.90;99.90;;;;;;5062037;28;19971;-60
2023/12/29 04:27:21;;;;;;;;;;;5.90;99.90;;;;;;5063937;28;19928;-60
2023/12/29 04:29:48;;;;;;;;;;;5.90;99.90;;;;;;5049512;28;19932;-59
2023/12/29 04:32:15;;;;;;;;;;;5.90;99.90;;;;;;5056251;28;19925;-59
2023/12/29 04:34:43;;;;;;;;;;;5.90;99.90;;;;;;5049967;28;19970;-60
2023/12/29 04:37:11;;;;;;;;;;;5.90;99.90;;;;;;5086077;28;20260;-59
2023/12/29 04:39:38;;;;;;;;;;;5.90;99.90;;;;;;5052481;28;19929;-60
2023/12/29 04:42:07;;;;;;;;;;;5.90;99.90;;;;;;5085133;28;20149;-61
2023/12/29 04:44:34;;;;;;;;;;;5.90;99.90;;;;;;5052571;28;19925;-60
2023/12/29 04:47:00;;;;;;;;;;;5.90;99.90;;;;;;5059781;28;19928;-61
2023/12/29 04:49:27;;;;;;;;;;;5.90;99.90;;;;;;5045506;28;19928;-63
2023/12/29 04:51:54;;;;;;;;;;;6.00;99.90;;;;;;5049828;28;19964;-64
2023/12/29 04:54:21;;;;;;;;;;;6.00;99.90;;;;;;5053791;28;19924;-61
2023/12/29 04:56:48;;;;;;;;;;;6.00;99.90;;;;;;5054902;28;19972;-59
2023/12/29 04:59:15;;;;;;;;;;;6.00;99.90;;;;;;5054168;28;19932;-60
2023/12/29 05:01:41;;;;;;;;;;;6.00;99.90;;;;;;5085092;28;19936;-67
2023/12/29 05:04:08;;;;;;;;;;;6.00;99.90;;;;;;5050987;28;20027;-59
2023/12/29 05:06:35;;;;;;;;;;;6.00;99.90;;;;;;5047682;28;19935;-66
2023/12/29 05:09:02;;;;;;;;;;;6.00;99.90;;;;;;5058219;28;20046;-59
2023/12/29 05:11:30;;;;;;;;;;;6.00;99.90;;;;;;5059237;28;19939;-59
2023/12/29 05:13:56;;;;;;;;;;;6.00;99.90;;;;;;5055428;28;20378;-58
2023/12/29 05:16:23;;;;;;;;;;;6.00;99.90;;;;;;5056239;28;20567;-62
2023/12/29 05:18:50;;;;;;;;;;;6.10;99.90;;;;;;5056510;28;19929;-60
2023/12/29 05:21:17;;;;;;;;;;;6.00;99.90;;;;;;5049977;28;20643;-60
2023/12/29 05:23:45;;;;;;;;;;;6.00;99.90;;;;;;5052721;28;20556;-61
2023/12/29 05:26:12;;;;;;;;;;;6.00;99.90;;;;;;5048971;28;20714;-62
2023/12/29 05:28:39;;;;;;;;;;;6.10;99.90;;;;;;5049520;28;19929;-62
2023/12/29 05:31:07;;;;;;;;;;;6.10;99.90;;;;;;5050491;28;19928;-59
2023/12/29 05:33:34;;;;;;;;;;;6.00;99.90;;;;;;5061927;28;20035;-59
2023/12/29 05:36:08;;;;;;;;;;;6.00;99.90;;;;;;5055177;28;19925;-60
2023/12/29 05:38:35;;;;;;;;;;;6.00;99.90;;;;;;5055017;28;19948;-59
2023/12/29 05:41:04;;;;;;;;;;;6.00;99.90;;;;;;5057700;28;20316;-61
2023/12/29 05:43:32;;;;;;;;;;;6.00;99.90;;;;;;5052544;28;19929;-59
2023/12/29 05:45:59;;;;;;;;;;;5.90;99.90;;;;;;5053831;28;19964;-59
2023/12/29 05:48:28;;;;;;;;;;;6.00;99.90;;;;;;5050830;28;20270;-65
2023/12/29 05:50:55;;;;;;;;;;;6.00;99.90;;;;;;5049651;28;19929;-62
2023/12/29 05:53:22;;;;;;;;;;;6.00;99.90;;;;;;5044622;28;20015;-58
2023/12/29 05:55:49;;;;;;;;;;;5.90;99.90;;;;;;5056568;28;19929;-66
2023/12/29 05:58:16;;;;;;;;;;;5.90;99.90;;;;;;5050338;28;19936;-62
2023/12/29 06:00:44;;;;;;;;;;;5.90;99.90;;;;;;5054349;28;20046;-59
2023/12/29 06:03:11;;;;;;;;;;;5.90;99.90;;;;;;5056095;28;19978;-59
2023/12/29 06:05:38;;;;;;;;;;;5.90;99.90;;;;;;5049982;28;19936;-63
2023/12/29 06:08:05;;;;;;;;;;;5.80;99.90;;;;;;5053596;28;19929;-60
2023/12/29 06:10:32;;;;;;;;;;;5.80;99.90;;;;;;5046207;28;20274;-64
2023/12/29 06:13:00;;;;;;;;;;;5.80;99.90;;;;;;5051287;28;19964;-64
2023/12/29 06:15:27;;;;;;;;;;;5.70;99.90;;;;;;5049802;28;20019;-60
2023/12/29 06:17:54;;;;;;;;;;;5.70;99.90;;;;;;5041980;28;19933;-61
2023/12/29 06:20:21;;;;;;;;;;;5.70;99.90;;;;;;5052779;28;19960;-62
2023/12/29 06:22:48;;;;;;;;;;;5.70;99.90;;;;;;5054651;28;19987;-58
2023/12/29 06:25:15;;;;;;;;;;;5.70;99.90;;;;;;5054061;28;19940;-59
2023/12/29 06:27:42;;;;;;;;;;;5.70;99.90;;;;;;5056140;28;19925;-61
2023/12/29 06:30:10;;;;;;;;;;;5.80;99.90;;;;;;5054484;28;19928;-59
2023/12/29 06:32:37;;;;;;;;;;;5.80;99.90;;;;;;5050800;28;19935;-59
2023/12/29 06:35:04;;;;;;;;;;;5.80;99.90;;;;;;5050566;28;19928;-62
2023/12/29 06:37:32;;;;;;;;;;;5.90;99.90;;;;;;5049119;28;19956;-61
2023/12/29 06:39:59;;;;;;;;;;;5.90;99.90;;;;;;5048628;28;19971;-60
2023/12/29 06:42:27;;;;;;;;;;;6.00;99.90;;;;;;5051577;28;19928;-62
2023/12/29 06:44:53;;;;;;;;;;;5.90;99.90;;;;;;5055638;28;19936;-60
2023/12/29 06:47:20;;;;;;;;;;;5.90;99.90;;;;;;5057819;28;19986;-61
2023/12/29 06:49:47;;;;;;;;;;;5.90;99.90;;;;;;5055244;28;20014;-59
2023/12/29 06:52:15;;;;;;;;;;;5.90;99.90;;;;;;5053586;28;19940;-59
2023/12/29 06:54:42;;;;;;;;;;;5.80;99.90;;;;;;5053708;28;19999;-60
2023/12/29 06:57:08;;;;;;;;;;;5.70;99.90;;;;;;5049171;28;19928;-59
2023/12/29 06:59:36;;;;;;;;;;;5.70;99.90;;;;;;5052125;28;20343;-59
2023/12/29 07:02:02;;;;;;;;;;;5.60;99.90;;;;;;5048163;28;19933;-66
2023/12/29 07:04:29;;;;;;;;;;;5.60;99.90;;;;;;5045399;28;20519;-60
2023/12/29 07:06:56;;;;;;;;;;;5.50;99.90;;;;;;5050735;28;19964;-58
2023/12/29 07:09:23;;;;;;;;;;;5.50;99.90;;;;;;5051779;28;20463;-66
2023/12/29 07:11:50;;;;;;;;;;;5.40;99.90;;;;;;5055646;28;20032;-59
2023/12/29 07:14:17;;;;;;;;;;;5.30;99.90;;;;;;5053483;28;20335;-58
2023/12/29 07:16:44;;;;;;;;;;;5.30;99.90;;;;;;5052096;28;19961;-62
2023/12/29 07:19:11;;;;;;;;;;;5.30;99.90;;;;;;5053271;28;20433;-67
2023/12/29 07:21:38;;;;;;;;;;;5.20;99.90;;;;;;5050468;28;19928;-59
2023/12/29 07:24:05;;;;;;;;;;;5.20;99.90;;;;;;5048991;28;19928;-60
2023/12/29 07:26:34;;;;;;;;;;;5.10;99.90;;;;;;5046361;28;19925;-60
2023/12/29 07:29:05;;;;;;;;;;;5.10;99.90;;;;;;5047487;28;19932;-60
2023/12/29 07:31:33;;;;;;;;;;;5.10;99.90;;;;;;5056674;28;19955;-60
2023/12/29 07:34:00;;;;;;;;;;;5.10;99.90;;;;;;5053381;28;19933;-61
2023/12/29 07:36:27;;;;;;;;;;;5.10;99.90;;;;;;5053133;28;19929;-61
2023/12/29 07:38:53;;;;;;;;;;;5.00;99.90;;;;;;5050233;28;19936;-61
2023/12/29 07:41:20;;;;;;;;;;;5.00;99.90;;;;;;5049057;28;20031;-59
2023/12/29 07:43:47;;;;;;;;;;;5.00;99.90;;;;;;5055537;28;19925;-63
2023/12/29 07:46:22;;;;;;;;;;;5.00;99.90;;;;;;5050213;28;19978;-61
2023/12/29 07:48:49;;;;;;;;;;;5.00;99.90;;;;;;5053979;28;19990;-60
2023/12/29 07:51:16;;;;;;;;;;;5.00;99.90;;;;;;5050460;28;19929;-63
2023/12/29 07:53:43;;;;;;;;;;;5.00;99.90;;;;;;5054914;28;19943;-59
2023/12/29 07:56:10;;;;;;;;;;;5.00;99.90;;;;;;5061500;28;20009;-61
2023/12/29 07:58:37;;;;;;;;;;;5.00;99.90;;;;;;5060853;28;19998;-65
2023/12/29 08:01:06;;;;;;;;;;;5.00;99.90;;;;;;5048539;28;19932;-59
2023/12/29 08:03:33;;;;;;;;;;;5.00;99.90;;;;;;5056981;28;19932;-58
2023/12/29 08:06:00;;;;;;;;;;;5.00;99.90;;;;;;5087329;28;19964;-62
2023/12/29 08:08:27;;;;;;;;;;;5.00;99.90;;;;;;5054256;28;19925;-61
2023/12/29 08:10:54;;;;;;;;;;;5.00;99.90;;;;;;5056659;28;19987;-60
2023/12/29 08:13:21;;;;;;;;;;;4.90;99.90;;;;;;5050887;28;20031;-58
2023/12/29 08:15:48;;;;;;;;;;;5.00;99.90;;;;;;5055571;28;20721;-63
2023/12/29 08:18:14;;;;;;;;;;;4.90;99.90;;;;;;5049024;28;19935;-62
2023/12/29 08:20:41;;;;;;;;;;;5.00;99.90;;;;;;5061999;28;20408;-61
2023/12/29 08:23:08;;;;;;;;;;;5.00;99.90;;;;;;5052699;28;19924;-60
2023/12/29 08:25:37;;;;;;;;;;;5.00;99.90;;;;;;5054713;28;19964;-62
2023/12/29 08:28:03;;;;;;;;;;;5.00;99.90;;;;;;5055467;28;19929;-60
2023/12/29 08:30:30;;;;;;;;;;;5.00;99.90;;;;;;5056271;28;19928;-63
2023/12/29 08:32:57;;;;;;;;;;;5.00;99.90;;;;;;5048680;28;19929;-60
2023/12/29 08:35:24;;;;;;;;;;;5.00;99.90;;;;;;5054052;28;20526;-59
2023/12/29 08:37:51;;;;;;;;;;;5.00;99.90;;;;;;5050667;28;20010;-60
2023/12/29 08:40:17;;;;;;;;;;;5.00;99.90;;;;;;5058941;28;19925;-59
2023/12/29 08:42:44;;;;;;;;;;;5.00;99.90;;;;;;5062841;28;19928;-61
2023/12/29 08:45:11;;;;;;;;;;;5.10;99.90;;;;;;5059036;28;19951;-60
2023/12/29 08:47:38;;;;;;;;;;;5.20;99.90;;;;;;5056533;28;19930;-62
2023/12/29 08:50:05;;;;;;;;;;;5.20;99.90;;;;;;5051164;28;19929;-59
2023/12/29 08:52:34;;;;;;;;;;;5.20;99.90;;;;;;5053269;28;19978;-59
2023/12/29 08:55:00;;;;;;;;;;;5.20;99.90;;;;;;5053238;28;19982;-60
2023/12/29 08:57:27;;;;;;;;;;;5.30;99.90;;;;;;5052626;28;19940;-60
2023/12/29 08:59:55;;;;;;;;;;;5.30;99.90;;;;;;5048247;28;19929;-60
2023/12/29 09:02:21;;;;;;;;;;;5.30;99.90;;;;;;5052724;28;20039;-58
2023/12/29 09:04:48;;;;;;;;;;;5.30;99.90;;;;;;5049011;28;19928;-61
2023/12/29 09:07:15;;;;;;;;;;;5.20;99.90;;;;;;5057858;28;19933;-59
2023/12/29 09:09:42;;;;;;;;;;;5.30;99.90;;;;;;5061466;28;20469;-61
2023/12/29 09:12:09;;;;;;;;;;;5.30;99.90;;;;;;5056830;28;20027;-61
2023/12/29 09:14:36;;;;;;;;;;;5.30;99.90;;;;;;5058329;28;19979;-59
2023/12/29 09:17:03;;;;;;;;;;;5.40;99.90;;;;;;5055007;28;20275;-59
2023/12/29 09:19:30;;;;;;;;;;;5.40;99.90;;;;;;5052375;28;19933;-60
2023/12/29 09:22:05;;;;;;;;;;;5.40;99.90;;;;;;5048267;28;19924;-59
2023/12/29 09:24:32;;;;;;;;;;;5.50;99.90;;;;;;5048972;28;19978;-57
2023/12/29 09:26:59;;;;;;;;;;;5.50;99.90;;;;;;5049337;28;20586;-63
2023/12/29 09:29:26;;;;;;;;;;;5.40;99.90;;;;;;5057157;28;19967;-59
2023/12/29 09:31:53;;;;;;;;;;;5.40;99.90;;;;;;5055383;28;19971;-58
2023/12/29 09:34:19;;;;;;;;;;;5.40;99.90;;;;;;5087228;28;19974;-66
2023/12/29 09:36:47;;;;;;;;;;;5.50;99.90;;;;;;5048281;28;19936;-58
2023/12/29 09:39:13;;;;;;;;;;;5.40;99.90;;;;;;5056135;28;19928;-58
2023/12/29 09:41:43;;;;;;;;;;;5.40;99.90;;;;;;5053019;28;20430;-61
2023/12/29 09:44:13;;;;;;;;;;;5.40;99.90;;;;;;5051200;28;20095;-62
2023/12/29 09:46:40;;;;;;;;;;;5.40;99.90;;;;;;5050465;28;19929;-59
2023/12/29 09:49:08;;;;;;;;;;;5.40;99.90;;;;;;5048199;28;19933;-65
2023/12/29 09:51:36;;;;;;;;;;;5.40;99.90;;;;;;5059233;28;20019;-60
2023/12/29 09:54:04;;;;;;;;;;;5.40;99.90;;;;;;5051475;28;19935;-58
2023/12/29 09:56:31;;;;;;;;;;;5.40;99.90;;;;;;5058440;28;19925;-59
2023/12/29 09:58:57;;;;;;;;;;;5.40;99.90;;;;;;5057209;28;20026;-58
2023/12/29 10:01:27;;;;;;;;;;;5.40;99.90;;;;;;5054649;28;20383;-59
2023/12/29 10:03:54;;;;;;;;;;;5.40;99.90;;;;;;5053395;28;19933;-62
2023/12/29 10:06:24;;;;;;;;;;;5.40;99.90;;;;;;5049108;28;19982;-60
2023/12/29 10:08:53;;;;;;;;;;;5.40;99.90;;;;;;5046918;28;19925;-60
2023/12/29 10:11:24;;;;;;;;;;;5.50;99.90;;;;;;5046675;28;19979;-59
2023/12/29 10:13:52;;;;;;;;;;;5.50;99.90;;;;;;5049505;28;19925;-61
2023/12/29 10:16:32;;;;;;;;;;;5.50;99.90;;;;;;5050766;28;20015;-59
2023/12/29 10:19:02;;;;;;;;;;;5.50;99.90;;;;;;5051110;28;19939;-61
2023/12/29 10:21:33;;;;;;;;;;;5.50;99.90;;;;;;5053923;28;19964;-62
2023/12/29 10:24:09;;;;;;;;;;;5.50;99.90;;;;;;5051726;28;20039;-59
2023/12/29 10:26:36;;;;;;;;;;;5.60;99.90;;;;;;5051622;28;19970;-59
2023/12/29 10:29:03;;;;;;;;;;;5.60;99.90;;;;;;5051178;28;20650;-58
2023/12/29 10:31:30;;;;;;;;;;;5.60;99.90;;;;;;5051883;28;19924;-60
2023/12/29 10:34:15;;;;;;;;;;;5.60;99.90;;;;;;5054639;28;20019;-58
2023/12/29 10:36:51;;;;;;;;;;;5.60;99.90;;;;;;5049653;28;19972;-58
2023/12/29 10:39:18;;;;;;;;;;;5.60;99.90;;;;;;5050464;28;19990;-61
2023/12/29 10:41:45;;;;;;;;;;;5.60;99.90;;;;;;5050854;28;20026;-61
2023/12/29 10:44:11;;;;;;;;;;;5.60;99.90;;;;;;5059006;28;19936;-61
2023/12/29 10:46:38;;;;;;;;;;;5.60;99.90;;;;;;5051925;28;19979;-62
2023/12/29 10:49:12;;;;;;;;;;;5.60;99.90;;;;;;5053414;28;20414;-60
2023/12/29 10:51:39;;;;;;;;;;;5.60;99.90;;;;;;5047928;28;19936;-59
2023/12/29 10:54:06;;;;;;;;;;;5.50;99.90;;;;;;5048935;28;19925;-61
2023/12/29 10:56:33;;;;;;;;;;;5.50;99.90;;;;;;5046676;28;19947;-59
2023/12/29 10:59:03;;;;;;;;;;;5.50;99.90;;;;;;5044669;28;19925;-63
2023/12/29 11:01:31;;;;;;;;;;;5.50;99.90;;;;;;5056325;28;19928;-58
2023/12/29 11:03:59;;;;;;;;;;;5.50;99.90;;;;;;5055067;28;19928;-60
2023/12/29 11:06:27;;;;;;;;;;;5.60;99.90;;;;;;5049417;28;19928;-59
2023/12/29 11:08:55;;;;;;;;;;;5.60;99.90;;;;;;5055902;28;19983;-58
2023/12/29 11:11:22;;;;;;;;;;;5.60;99.90;;;;;;5055660;28;19931;-59
2023/12/29 11:13:49;;;;;;;;;;;5.60;99.90;;;;;;5049440;28;20027;-61
2023/12/29 11:16:17;;;;;;;;;;;5.50;99.90;;;;;;5050422;28;19928;-58
2023/12/29 11:18:44;;;;;;;;;;;5.50;99.90;;;;;;5050191;28;20366;-62
2023/12/29 11:21:12;;;;;;;;;;;5.50;99.90;;;;;;5052788;28;19932;-59
2023/12/29 11:23:39;;;;;;;;;;;5.50;99.90;;;;;;5049228;28;19933;-63
2023/12/29 11:26:07;;;;;;;;;;;5.50;99.90;;;;;;5059423;28;19960;-60
2023/12/29 11:28:34;;;;;;;;;;;5.60;99.90;;;;;;5058617;28;19924;-58
2023/12/29 11:31:01;;;;;;;;;;;5.60;99.90;;;;;;5059290;28;19970;-62
2023/12/29 11:33:31;;;;;;;;;;;5.60;99.90;;;;;;5060504;28;19968;-65
2023/12/29 11:35:58;;;;;;;;;;;5.70;99.90;;;;;;5055663;28;20027;-61
2023/12/29 11:38:43;;;;;;;;;;;5.70;99.90;;;;;;5056644;28;20454;-63
2023/12/29 11:41:35;;;;;;;;;;;5.70;99.90;;;;;;5053197;28;19924;-64
2023/12/29 11:44:02;;;;;;;;;;;5.70;99.90;;;;;;5043289;28;20026;-62
2023/12/29 11:46:38;;;;;;;;;;;5.70;99.90;;;;;;5049986;28;19933;-64
2023/12/29 11:49:05;;;;;;;;;;;5.70;99.90;;;;;;5056915;28;19932;-58
2023/12/29 11:51:41;;;;;;;;;;;5.70;99.90;;;;;;5056526;28;20019;-60
2023/12/29 11:54:08;;;;;;;;;;;5.70;99.90;;;;;;5058114;28;19928;-59
2023/12/29 11:56:36;;;;;;;;;;;5.80;99.90;;;;;;5060165;28;19999;-58
2023/12/29 11:59:14;;;;;;;;;;;5.80;99.90;;;;;;5054919;28;19928;-58
2023/12/29 12:01:42;;;;;;;;;;;5.80;99.90;;;;;;5049219;28;19960;-59
2023/12/29 12:04:27;;;;;;;;;;;5.80;99.90;;;;;;5054522;28;19936;-59
2023/12/29 12:06:55;;;;;;;;;;;5.90;99.90;;;;;;5050783;28;19929;-65
2023/12/29 12:09:25;;;;;;;;;;;5.90;99.90;;;;;;5053717;28;19924;-59
2023/12/29 12:11:52;;;;;;;;;;;5.90;99.90;;;;;;5059572;28;19968;-59
2023/12/29 12:14:37;;;;;;;;;;;5.90;99.90;;;;;;5063579;28;19928;-57
2023/12/29 12:17:04;;;;;;;;;;;5.90;99.90;;;;;;5051317;28;19925;-58
2023/12/29 12:19:34;;;;;;;;;;;5.90;99.90;;;;;;5055430;28;19924;-66
2023/12/29 12:22:02;;;;;;;;;;;5.90;99.90;;;;;;5053923;28;19929;-59
2023/12/29 12:24:29;;;;;;;;;;;5.80;99.90;;;;;;5055609;28;20248;-61
2023/12/29 12:26:55;;;;;;;;;;;5.80;99.90;;;;;;5053275;28;19932;-63
2023/12/29 12:29:23;;;;;;;;;;;5.80;99.90;;;;;;5050989;28;19943;-65
2023/12/29 12:31:53;;;;;;;;;;;5.70;99.90;;;;;;5045462;28;20460;-60
2023/12/29 12:34:20;;;;;;;;;;;5.70;99.90;;;;;;5049804;28;20128;-63
2023/12/29 12:36:50;;;;;;;;;;;5.70;99.90;;;;;;5056474;28;19933;-58
2023/12/29 12:39:17;;;;;;;;;;;5.60;99.90;;;;;;5057447;28;20413;-59
2023/12/29 12:41:44;;;;;;;;;;;5.70;99.90;;;;;;5058009;28;20052;-58
2023/12/29 12:44:12;;;;;;;;;;;5.70;99.90;;;;;;5056349;28;19975;-58
2023/12/29 12:46:49;;;;;;;;;;;5.60;99.90;;;;;;5055839;28;20209;-59
2023/12/29 12:49:16;;;;;;;;;;;5.70;99.90;;;;;;5051162;28;19933;-60
2023/12/29 12:51:43;;;;;;;;;;;5.70;99.90;;;;;;5052056;28;20406;-59
2023/12/29 12:54:11;;;;;;;;;;;5.70;99.90;;;;;;5050983;28;19940;-63
2023/12/29 12:56:40;;;;;;;;;;;5.70;99.90;;;;;;5053528;28;20622;-62
2023/12/29 12:59:07;;;;;;;;;;;5.60;99.90;;;;;;5087165;28;20338;-60
2023/12/29 13:01:36;;;;;;;;;;;5.60;99.90;;;;;;5055414;28;19963;-61
2023/12/29 13:04:04;;;;;;;;;;;5.70;99.90;;;;;;5052411;28;19928;-59
2023/12/29 13:06:32;;;;;;;;;;;5.60;99.90;;;;;;5053598;28;19977;-60
2023/12/29 13:09:00;;;;;;;;;;;5.60;99.90;;;;;;5055305;28;19932;-60
2023/12/29 13:11:27;;;;;;;;;;;5.70;99.90;;;;;;5054813;28;19928;-58
2023/12/29 13:13:57;;;;;;;;;;;5.70;99.90;;;;;;5052672;28;19972;-63
2023/12/29 13:16:38;;;;;;;;;;;5.60;99.90;;;;;;5051642;28;20359;-62
2023/12/29 13:19:21;;;;;;;;;;;5.70;99.90;;;;;;5048100;28;19932;-58
2023/12/29 13:21:54;;;;;;;;;;;5.60;99.90;;;;;;5048572;28;19952;-58
2023/12/29 13:24:22;;;;;;;;;;;5.60;99.90;;;;;;5056731;28;20024;-59
2023/12/29 13:26:52;;;;;;;;;;;5.70;99.90;;;;;;5060062;28;19990;-61
2023/12/29 13:29:20;;;;;;;;;;;5.60;99.90;;;;;;5057467;28;20028;-58
2023/12/29 13:31:52;;;;;;;;;;;5.60;99.90;;;;;;5056800;28;20275;-62
2023/12/29 13:34:22;;;;;;;;;;;5.60;99.90;;;;;;5054120;28;19929;-58
2023/12/29 13:36:51;;;;;;;;;;;5.60;99.90;;;;;;5050635;28;20174;-58
2023/12/29 13:39:21;;;;;;;;;;;5.60;99.90;;;;;;5050836;28;19925;-60
2023/12/29 13:41:48;;;;;;;;;;;5.60;99.90;;;;;;5049189;28;20030;-58
2023/12/29 13:44:15;;;;;;;;;;;5.60;99.90;;;;;;5049685;28;19935;-60
2023/12/29 13:46:42;;;;;;;;;;;5.60;99.90;;;;;;5060168;28;19928;-59
2023/12/29 13:49:10;;;;;;;;;;;5.60;99.90;;;;;;5061832;28;21184;-58
2023/12/29 13:51:37;;;;;;;;;;;5.60;99.90;;;;;;5051051;28;19936;-58
2023/12/29 13:54:04;;;;;;;;;;;5.60;99.90;;;;;;5059794;28;19974;-60
2023/12/29 13:56:31;;;;;;;;;;;5.60;99.90;;;;;;5054232;28;19928;-58
2023/12/29 13:59:04;;;;;;;;;;;5.60;99.90;;;;;;5051317;28;19929;-58
2023/12/29 14:01:35;;;;;;;;;;;5.60;99.90;;;;;;5050111;28;19971;-63
2023/12/29 14:04:03;;;;;;;;;;;5.60;99.90;;;;;;5052683;28;20663;-60
2023/12/29 14:06:32;;;;;;;;;;;5.60;99.90;;;;;;5047900;28;20055;-60
2023/12/29 14:08:58;;;;;;;;;;;5.70;99.90;;;;;;5047291;28;19933;-58
2023/12/29 14:11:25;;;;;;;;;;;5.80;99.90;;;;;;5057820;28;19935;-62
2023/12/29 14:13:52;;;;;;;;;;;5.80;99.90;;;;;;5058335;28;20002;-58
2023/12/29 14:16:20;;;;;;;;;;;5.80;99.90;;;;;;5056154;28;19975;-60
2023/12/29 14:18:53;;;;;;;;;;;5.80;99.90;;;;;;5057703;28;20374;-59
2023/12/29 14:21:23;;;;;;;;;;;5.80;99.90;;;;;;5049305;28;19933;-63
2023/12/29 14:24:05;;;;;;;;;;;5.80;99.90;;;;;;5049413;28;19928;-61
2023/12/29 14:26:31;;;;;;;;;;;5.80;99.90;;;;;;5047478;28;20298;-61
2023/12/29 14:29:02;;;;;;;;;;;5.70;99.90;;;;;;5048925;28;19994;-61
2023/12/29 14:31:31;;;;;;;;;;;5.70;99.90;;;;;;5047694;28;19925;-58
2023/12/29 14:33:58;;;;;;;;;;;5.70;99.90;;;;;;5061000;28;19928;-61
2023/12/29 14:36:25;;;;;;;;;;;5.70;99.90;;;;;;5052059;28;19928;-58